Time;durP1;ratioP1;P1;durP2;ratioP2;P2;SDS_P1;SDS_P2;PMS_P1;PMS_P2;Temp;Humidity;BMP_temperature;BMP_pressure;BME280_temperature;BME280_humidity;BME280_pressure;Samples;Min_cycle;Max_cycle;Signal;HPM_P1;HPM_P2
2022/01/01 00:02:21;;;;;;;9.02;4.90;;;19.20;57.60;;;;;;5013956;28;20026;-71
2022/01/01 00:04:47;;;;;;;6.03;4.35;;;19.20;57.60;;;;;;5013603;28;20505;-71
2022/01/01 00:07:14;;;;;;;5.57;4.00;;;19.20;57.60;;;;;;5013670;28;20052;-71
2022/01/01 00:09:41;;;;;;;5.85;4.38;;;19.20;57.60;;;;;;5013741;28;20022;-71
2022/01/01 00:12:07;;;;;;;7.78;4.53;;;19.20;57.60;;;;;;5013835;28;20038;-71
2022/01/01 00:14:33;;;;;;;6.63;4.78;;;19.20;57.60;;;;;;5013678;28;20029;-71
2022/01/01 00:16:58;;;;;;;6.90;4.30;;;19.20;57.60;;;;;;5013683;28;20022;-71
2022/01/01 00:19:24;;;;;;;6.82;4.72;;;19.20;57.60;;;;;;4995391;28;20364;-71
2022/01/01 00:21:49;;;;;;;7.85;4.70;;;19.20;57.70;;;;;;4993924;28;20030;-71
2022/01/01 00:24:15;;;;;;;5.75;4.90;;;19.20;57.70;;;;;;4993898;28;20418;-71
2022/01/01 00:26:41;;;;;;;8.65;4.90;;;19.20;57.70;;;;;;4993459;28;20069;-71
2022/01/01 00:29:06;;;;;;;6.55;5.07;;;19.20;57.70;;;;;;5002113;28;20026;-71
2022/01/01 00:31:32;;;;;;;7.57;4.93;;;19.20;57.70;;;;;;5013446;28;20018;-71
2022/01/01 00:33:59;;;;;;;7.57;5.20;;;19.20;57.70;;;;;;5013339;28;20065;-71
2022/01/01 00:36:28;;;;;;;6.40;5.07;;;19.20;57.70;;;;;;5013325;28;20466;-71
2022/01/01 00:38:54;;;;;;;8.15;4.90;;;19.20;57.70;;;;;;5011915;28;20099;-71
2022/01/01 00:41:19;;;;;;;8.77;5.57;;;19.20;57.70;;;;;;5013325;28;20030;-71
2022/01/01 00:43:45;;;;;;;6.30;4.70;;;19.20;57.70;;;;;;5013136;28;20382;-71
2022/01/01 00:46:11;;;;;;;7.60;4.70;;;19.20;57.70;;;;;;5013202;28;20034;-71
2022/01/01 00:48:36;;;;;;;8.23;5.60;;;19.20;57.60;;;;;;5011815;28;20029;-71
2022/01/01 00:51:02;;;;;;;9.15;5.25;;;19.20;57.60;;;;;;5013043;28;20022;-71
2022/01/01 00:53:28;;;;;;;6.90;4.90;;;19.20;57.60;;;;;;5013073;28;20028;-71
2022/01/01 00:55:53;;;;;;;7.85;6.15;;;19.20;57.60;;;;;;5013085;28;20061;-71
2022/01/01 00:58:19;;;;;;;7.65;5.57;;;19.20;57.70;;;;;;5012996;28;20029;-71
2022/01/01 01:00:45;;;;;;;8.40;5.82;;;19.20;57.70;;;;;;5011647;28;20041;-71
2022/01/01 01:03:12;;;;;;;8.10;5.38;;;19.10;57.60;;;;;;5012915;28;20026;-71
2022/01/01 01:05:39;;;;;;;8.35;5.45;;;19.20;57.70;;;;;;5011536;28;20029;-71
2022/01/01 01:08:06;;;;;;;8.30;5.75;;;19.20;57.60;;;;;;5012795;28;20044;-71
2022/01/01 01:10:31;;;;;;;8.45;5.63;;;19.10;57.70;;;;;;5012831;28;20380;-71
2022/01/01 01:12:57;;;;;;;7.35;5.53;;;19.10;57.70;;;;;;5013141;28;20148;-71
2022/01/01 01:15:24;;;;;;;8.25;5.25;;;19.10;57.60;;;;;;5012662;28;20101;-71
2022/01/01 01:17:51;;;;;;;8.52;5.45;;;19.10;57.60;;;;;;5007443;28;20421;-71
2022/01/01 01:20:18;;;;;;;7.85;5.45;;;19.20;57.70;;;;;;4993082;28;20054;-71
2022/01/01 01:22:44;;;;;;;7.47;5.35;;;19.10;57.50;;;;;;4993195;28;20037;-71
2022/01/01 01:25:11;;;;;;;8.38;5.88;;;19.10;57.60;;;;;;4992976;28;20427;-71
2022/01/01 01:27:37;;;;;;;9.23;5.80;;;19.10;57.50;;;;;;4991804;28;20073;-71
2022/01/01 01:30:09;;;;;;;8.18;5.75;;;19.20;57.60;;;;;;5009012;28;20027;-71
2022/01/01 01:32:36;;;;;;;8.52;5.70;;;19.10;57.50;;;;;;5012714;28;20026;-72
2022/01/01 01:35:02;;;;;;;8.13;5.80;;;19.10;57.60;;;;;;5011283;28;20030;-71
2022/01/01 01:37:28;;;;;;;8.52;5.60;;;19.10;57.60;;;;;;5012506;28;20040;-71
2022/01/01 01:39:55;;;;;;;8.98;6.00;;;19.10;57.60;;;;;;5015797;28;20030;-71
2022/01/01 01:42:21;;;;;;;7.78;5.65;;;19.10;57.70;;;;;;5015388;28;20037;-71
2022/01/01 01:44:48;;;;;;;8.60;5.68;;;19.10;57.60;;;;;;5016420;28;20034;-71
2022/01/01 01:47:17;;;;;;;8.93;5.97;;;19.10;57.60;;;;;;5016452;28;20025;-71
2022/01/01 01:49:44;;;;;;;9.60;5.63;;;19.10;57.60;;;;;;5016351;28;20056;-71
2022/01/01 01:52:11;;;;;;;9.95;6.30;;;19.10;57.60;;;;;;5015199;28;20018;-71
2022/01/01 01:54:37;;;;;;;7.95;5.90;;;19.10;57.60;;;;;;5014887;28;20021;-71
2022/01/01 01:57:04;;;;;;;8.45;5.97;;;19.10;57.60;;;;;;5015030;28;20506;-71
2022/01/01 01:59:29;;;;;;;9.05;5.80;;;19.10;57.60;;;;;;5014817;28;20363;-71
2022/01/01 02:01:55;;;;;;;8.52;5.75;;;19.10;57.50;;;;;;5014916;28;20033;-71
2022/01/01 02:04:21;;;;;;;8.18;5.45;;;19.20;57.60;;;;;;5016067;28;20131;-71
2022/01/01 02:06:48;;;;;;;9.07;5.90;;;19.10;57.50;;;;;;5015898;28;20125;-71
2022/01/01 02:09:13;;;;;;;8.90;5.65;;;19.20;57.50;;;;;;5015995;28;20065;-71
2022/01/01 02:11:39;;;;;;;8.35;5.82;;;19.20;57.60;;;;;;5015973;28;20058;-71
2022/01/01 02:14:24;;;;;;;10.88;6.47;;;19.10;57.40;;;;;;5015942;28;20105;-71
2022/01/01 02:17:08;;;;;;;8.98;5.90;;;19.20;57.60;;;;;;5015953;28;20095;-71
2022/01/01 02:19:47;;;;;;;8.95;5.75;;;19.10;57.50;;;;;;4995465;28;20014;-71
2022/01/01 02:22:13;;;;;;;7.63;5.75;;;19.10;57.40;;;;;;4996542;28;20018;-71
2022/01/01 02:24:39;;;;;;;8.98;6.00;;;19.10;57.50;;;;;;4994952;28;20502;-71
2022/01/01 02:27:04;;;;;;;9.88;5.90;;;19.10;57.50;;;;;;4996137;28;20027;-71
2022/01/01 02:29:30;;;;;;;9.32;5.82;;;19.10;57.50;;;;;;5007580;28;20034;-71
2022/01/01 02:31:55;;;;;;;7.57;5.80;;;19.10;57.50;;;;;;5014249;28;20014;-71
2022/01/01 02:34:21;;;;;;;7.25;5.28;;;19.10;57.50;;;;;;5015692;28;20093;-71
2022/01/01 02:36:46;;;;;;;8.07;5.60;;;19.10;57.50;;;;;;5015777;28;20347;-71
2022/01/01 02:39:15;;;;;;;8.48;5.72;;;19.10;57.50;;;;;;5014258;28;20026;-71
2022/01/01 02:41:42;;;;;;;7.97;5.55;;;19.10;57.50;;;;;;5015323;28;20539;-71
2022/01/01 02:44:08;;;;;;;7.35;5.22;;;19.10;57.50;;;;;;5015374;28;20022;-71
2022/01/01 02:46:34;;;;;;;8.25;5.60;;;19.10;57.50;;;;;;5015309;28;20444;-71
2022/01/01 02:49:00;;;;;;;7.38;5.20;;;19.10;57.50;;;;;;5014766;28;20026;-71
2022/01/01 02:51:26;;;;;;;10.65;5.75;;;19.10;57.60;;;;;;5015225;28;20068;-71
2022/01/01 02:53:51;;;;;;;7.97;5.43;;;19.10;57.60;;;;;;5015224;28;20101;-71
2022/01/01 02:56:17;;;;;;;8.02;5.47;;;19.10;57.60;;;;;;5015183;28;20017;-71
2022/01/01 02:58:42;;;;;;;7.85;5.40;;;19.10;57.60;;;;;;5013858;28;20018;-71
2022/01/01 03:01:09;;;;;;;8.48;5.68;;;19.10;57.60;;;;;;5013736;28;20197;-71
2022/01/01 03:03:35;;;;;;;7.05;5.38;;;19.10;57.60;;;;;;5013795;28;20029;-71
2022/01/01 03:06:00;;;;;;;7.82;5.63;;;19.10;57.60;;;;;;5013672;28;20022;-71
2022/01/01 03:08:26;;;;;;;6.97;5.45;;;19.10;57.50;;;;;;5014828;28;20038;-71
2022/01/01 03:10:51;;;;;;;7.55;5.45;;;19.10;57.50;;;;;;5014822;28;20026;-71
2022/01/01 03:13:18;;;;;;;8.85;5.38;;;19.10;57.50;;;;;;5014823;28;20056;-71
2022/01/01 03:15:43;;;;;;;8.40;5.55;;;19.10;57.50;;;;;;5014730;28;20053;-71
2022/01/01 03:18:09;;;;;;;7.57;5.45;;;19.10;57.50;;;;;;5006839;28;20518;-71
2022/01/01 03:20:35;;;;;;;6.78;5.00;;;19.10;57.40;;;;;;4993818;28;20474;-71
2022/01/01 03:23:02;;;;;;;8.00;5.35;;;19.10;57.40;;;;;;4993836;28;20022;-71
2022/01/01 03:25:28;;;;;;;6.22;4.85;;;19.10;57.40;;;;;;4993958;28;20037;-71
2022/01/01 03:27:53;;;;;;;9.07;5.57;;;19.10;57.40;;;;;;4993594;28;20030;-71
2022/01/01 03:30:19;;;;;;;7.90;4.55;;;19.10;57.40;;;;;;5011798;28;20048;-71
2022/01/01 03:32:44;;;;;;;6.78;5.28;;;19.20;57.40;;;;;;5014486;28;20026;-71
2022/01/01 03:35:10;;;;;;;8.70;5.18;;;19.10;57.30;;;;;;5014557;28;20113;-71
2022/01/01 03:37:36;;;;;;;8.77;4.63;;;19.10;57.30;;;;;;5014323;28;20034;-71
2022/01/01 03:40:02;;;;;;;7.93;5.13;;;19.20;57.30;;;;;;5013065;28;20022;-71
2022/01/01 03:42:28;;;;;;;6.88;5.05;;;19.20;57.40;;;;;;5014294;28;20056;-71
2022/01/01 03:44:53;;;;;;;9.40;5.13;;;19.20;57.50;;;;;;5014303;28;20490;-71
2022/01/01 03:47:18;;;;;;;8.20;5.47;;;19.20;57.40;;;;;;5014094;28;20112;-71
2022/01/01 03:49:44;;;;;;;6.95;5.07;;;19.20;57.40;;;;;;5014130;28;20052;-71
2022/01/01 03:52:10;;;;;;;8.30;5.60;;;19.10;58.30;;;;;;5014136;28;20053;-72
2022/01/01 03:54:35;;;;;;;6.38;4.75;;;19.20;57.40;;;;;;5014147;28;20018;-71
2022/01/01 03:57:01;;;;;;;7.55;5.13;;;19.10;57.40;;;;;;5014052;28;20061;-71
2022/01/01 03:59:26;;;;;;;8.75;5.32;;;19.10;57.30;;;;;;5012736;28;20132;-71
2022/01/01 04:01:52;;;;;;;6.57;4.80;;;19.10;57.30;;;;;;5013149;28;20021;-71
2022/01/01 04:04:22;;;;;;;7.97;4.65;;;19.10;57.40;;;;;;5012492;28;20107;-71
2022/01/01 04:06:48;;;;;;;7.40;4.68;;;19.10;57.40;;;;;;5013666;28;20050;-71
2022/01/01 04:09:14;;;;;;;6.90;4.93;;;19.10;57.40;;;;;;5013756;28;20041;-71
2022/01/01 04:11:40;;;;;;;6.40;4.65;;;19.10;57.40;;;;;;5013720;28;20497;-72
2022/01/01 04:14:06;;;;;;;8.25;5.10;;;19.10;57.40;;;;;;5012771;28;20022;-71
2022/01/01 04:16:31;;;;;;;8.07;4.68;;;19.10;57.40;;;;;;5012430;28;20017;-71
2022/01/01 04:18:57;;;;;;;7.93;4.75;;;19.10;57.40;;;;;;4999216;28;20110;-72
2022/01/01 04:21:22;;;;;;;6.43;4.95;;;19.10;57.40;;;;;;4994075;28;20036;-71
2022/01/01 04:23:48;;;;;;;8.25;4.95;;;19.10;57.30;;;;;;4992680;28;20145;-71
2022/01/01 04:26:13;;;;;;;7.65;5.07;;;19.10;57.30;;;;;;4993935;28;20497;-71
2022/01/01 04:28:41;;;;;;;8.32;5.07;;;19.10;57.30;;;;;;4997158;28;20498;-71
2022/01/01 04:31:06;;;;;;;7.28;4.82;;;19.10;57.30;;;;;;5012189;28;20022;-72
2022/01/01 04:33:32;;;;;;;7.38;5.05;;;19.10;57.20;;;;;;5013474;28;20033;-71
2022/01/01 04:35:58;;;;;;;8.65;5.00;;;19.20;57.30;;;;;;5013359;28;20481;-71
2022/01/01 04:38:36;;;;;;;7.15;4.38;;;19.10;57.20;;;;;;5013169;28;20025;-71
2022/01/01 04:41:15;;;;;;;6.82;4.90;;;19.20;57.30;;;;;;5013369;28;20049;-71
2022/01/01 04:43:42;;;;;;;7.82;4.57;;;19.10;57.20;;;;;;5011871;28;20474;-71
2022/01/01 04:46:08;;;;;;;6.97;4.53;;;19.10;57.20;;;;;;5011956;28;20367;-71
2022/01/01 04:48:37;;;;;;;6.18;4.35;;;19.10;57.20;;;;;;5011727;28;20033;-71
2022/01/01 04:51:08;;;;;;;6.95;4.88;;;19.10;57.20;;;;;;5013181;28;20022;-71
2022/01/01 04:53:34;;;;;;;6.43;4.45;;;19.10;57.20;;;;;;5013126;28;20014;-71
2022/01/01 04:56:04;;;;;;;8.38;4.60;;;19.10;57.30;;;;;;5011794;28;20033;-71
2022/01/01 04:58:30;;;;;;;6.32;4.28;;;19.10;57.20;;;;;;5012920;28;20072;-71
2022/01/01 05:00:55;;;;;;;5.25;4.20;;;19.10;57.30;;;;;;5011757;28;20064;-71
2022/01/01 05:03:21;;;;;;;7.13;4.93;;;19.10;57.20;;;;;;5012930;28;20560;-71
2022/01/01 05:05:46;;;;;;;8.18;5.00;;;19.10;57.20;;;;;;5011664;28;20029;-71
2022/01/01 05:08:12;;;;;;;7.30;4.57;;;19.10;57.20;;;;;;5011318;28;20137;-71
2022/01/01 05:10:37;;;;;;;6.70;4.38;;;19.20;57.30;;;;;;5012934;28;20439;-71
2022/01/01 05:13:03;;;;;;;6.70;4.35;;;19.10;57.20;;;;;;5012689;28;20018;-71
2022/01/01 05:15:29;;;;;;;5.90;4.20;;;19.20;57.30;;;;;;5012833;28;20060;-71
2022/01/01 05:17:55;;;;;;;7.03;4.18;;;19.10;57.20;;;;;;5006682;28;20463;-71
2022/01/01 05:20:20;;;;;;;6.65;4.50;;;19.10;57.20;;;;;;4993169;28;20031;-71
2022/01/01 05:22:46;;;;;;;6.13;4.47;;;19.10;57.20;;;;;;4993138;28;20026;-71
2022/01/01 05:25:12;;;;;;;7.57;4.47;;;19.10;57.20;;;;;;4992975;28;20034;-71
2022/01/01 05:27:37;;;;;;;7.45;4.63;;;19.10;57.20;;;;;;4993050;28;20022;-71
2022/01/01 05:30:05;;;;;;;7.15;4.63;;;19.10;57.20;;;;;;5009066;28;20019;-71
2022/01/01 05:32:30;;;;;;;7.55;4.57;;;19.10;57.10;;;;;;4992963;28;20037;-71
2022/01/01 05:34:56;;;;;;;6.10;4.43;;;19.20;57.20;;;;;;4993034;28;20019;-71
2022/01/01 05:37:21;;;;;;;6.35;4.50;;;19.10;57.20;;;;;;5004590;28;20702;-71
2022/01/01 05:39:47;;;;;;;6.35;4.10;;;19.10;57.20;;;;;;5012503;28;20025;-71
2022/01/01 05:42:12;;;;;;;6.30;4.22;;;19.10;57.20;;;;;;5012629;28;20033;-71
2022/01/01 05:44:38;;;;;;;6.65;4.05;;;19.10;57.10;;;;;;5012434;28;20026;-71
2022/01/01 05:47:04;;;;;;;5.82;4.07;;;19.10;57.20;;;;;;5012555;28;20057;-71
2022/01/01 05:49:29;;;;;;;5.75;4.20;;;19.10;57.10;;;;;;5012329;28;20450;-71
2022/01/01 05:51:55;;;;;;;6.32;4.10;;;19.10;57.20;;;;;;5012554;28;20053;-71
2022/01/01 05:54:20;;;;;;;5.40;4.00;;;19.10;57.20;;;;;;5011133;28;20537;-71
2022/01/01 05:56:46;;;;;;;7.40;4.85;;;19.10;57.20;;;;;;5011242;28;20053;-71
2022/01/01 05:59:11;;;;;;;7.53;4.47;;;19.10;57.20;;;;;;5012306;28;20118;-71
2022/01/01 06:01:37;;;;;;;5.85;4.05;;;19.10;57.20;;;;;;5012386;28;20443;-71
2022/01/01 06:04:03;;;;;;;6.95;4.32;;;19.10;57.20;;;;;;5010996;28;20124;-71
2022/01/01 06:06:28;;;;;;;5.07;4.00;;;19.10;57.20;;;;;;5012324;28;20605;-71
2022/01/01 06:08:54;;;;;;;6.70;3.95;;;19.10;57.20;;;;;;5012166;28;20034;-71
2022/01/01 06:11:19;;;;;;;6.68;4.28;;;19.10;57.20;;;;;;5012384;28;20057;-71
2022/01/01 06:13:44;;;;;;;5.97;4.00;;;19.10;57.20;;;;;;5012461;28;20029;-71
2022/01/01 06:16:10;;;;;;;6.47;4.00;;;19.10;57.20;;;;;;5012289;28;20505;-71
2022/01/01 06:18:35;;;;;;;5.90;4.03;;;19.10;57.30;;;;;;4999350;28;20018;-71
2022/01/01 06:21:03;;;;;;;7.18;4.82;;;19.10;57.20;;;;;;4992682;28;20026;-71
2022/01/01 06:23:29;;;;;;;6.53;4.20;;;19.10;57.10;;;;;;4992866;28;20104;-71
2022/01/01 06:25:54;;;;;;;7.28;4.35;;;19.10;57.10;;;;;;4994248;28;20039;-71
2022/01/01 06:28:20;;;;;;;6.30;3.90;;;19.10;57.10;;;;;;4996971;28;20409;-71
2022/01/01 06:30:45;;;;;;;4.90;4.28;;;19.10;57.10;;;;;;5015626;28;20018;-71
2022/01/01 06:33:16;;;;;;;7.40;4.35;;;19.10;57.20;;;;;;5014513;28;20022;-71
2022/01/01 06:35:43;;;;;;;6.22;3.95;;;19.10;57.10;;;;;;5015710;28;20371;-71
2022/01/01 06:38:10;;;;;;;7.57;4.28;;;19.10;57.20;;;;;;5015473;28;20485;-71
2022/01/01 06:40:40;;;;;;;6.20;4.07;;;19.10;57.20;;;;;;5015370;28;20429;-71
2022/01/01 06:43:07;;;;;;;6.72;3.70;;;19.10;57.10;;;;;;5015579;28;20479;-71
2022/01/01 06:45:32;;;;;;;5.97;3.78;;;19.10;57.10;;;;;;5015367;28;20391;-71
2022/01/01 06:47:58;;;;;;;5.97;3.78;;;19.10;57.10;;;;;;5014078;28;20030;-72
2022/01/01 06:50:23;;;;;;;4.60;3.70;;;19.10;57.10;;;;;;5015298;28;20022;-71
2022/01/01 06:52:49;;;;;;;6.38;3.60;;;19.10;57.10;;;;;;5014080;28;20026;-71
2022/01/01 06:55:15;;;;;;;5.30;3.67;;;19.10;57.10;;;;;;5015238;28;20053;-71
2022/01/01 06:57:42;;;;;;;4.85;3.78;;;19.10;57.10;;;;;;5013978;28;20029;-71
2022/01/01 07:00:09;;;;;;;5.47;3.60;;;19.10;57.10;;;;;;5015066;28;20057;-71
2022/01/01 07:02:45;;;;;;;6.32;3.65;;;19.10;57.10;;;;;;5015160;28;20437;-71
2022/01/01 07:05:13;;;;;;;5.35;3.90;;;19.10;57.00;;;;;;5014930;28;20092;-71
2022/01/01 07:07:39;;;;;;;5.22;3.72;;;19.10;57.10;;;;;;5014878;28;20446;-71
2022/01/01 07:10:06;;;;;;;6.78;3.80;;;19.10;57.10;;;;;;5014852;28;20022;-71
2022/01/01 07:12:34;;;;;;;5.25;3.65;;;19.10;57.10;;;;;;5014922;28;20029;-71
2022/01/01 07:15:00;;;;;;;5.00;3.67;;;19.10;57.00;;;;;;5014773;28;20104;-71
2022/01/01 07:17:25;;;;;;;5.38;3.47;;;19.10;57.00;;;;;;5011574;28;20108;-71
2022/01/01 07:19:51;;;;;;;5.70;4.00;;;19.10;57.00;;;;;;4995114;28;20498;-71
2022/01/01 07:22:17;;;;;;;5.30;3.75;;;19.10;57.10;;;;;;4995284;28;20023;-72
2022/01/01 07:24:44;;;;;;;5.35;3.53;;;19.10;57.00;;;;;;4994991;28;20084;-71
2022/01/01 07:27:11;;;;;;;4.35;3.50;;;19.10;57.10;;;;;;4995147;28;20026;-71
2022/01/01 07:29:36;;;;;;;5.43;3.38;;;19.10;57.00;;;;;;5006025;28;20044;-71
2022/01/01 07:32:02;;;;;;;5.20;3.60;;;19.10;57.00;;;;;;5014567;28;20026;-71
2022/01/01 07:34:27;;;;;;;6.82;3.45;;;19.10;57.00;;;;;;5013136;28;20033;-71
2022/01/01 07:36:53;;;;;;;5.15;3.75;;;19.10;57.10;;;;;;5013196;28;20081;-71
2022/01/01 07:39:18;;;;;;;6.05;3.67;;;19.10;57.00;;;;;;5012970;28;20073;-71
2022/01/01 07:41:44;;;;;;;6.53;4.20;;;19.10;57.00;;;;;;5013180;28;20068;-72
2022/01/01 07:44:10;;;;;;;4.68;3.38;;;19.10;56.90;;;;;;5014318;28;20030;-71
2022/01/01 07:46:36;;;;;;;4.43;3.30;;;19.10;56.90;;;;;;5013391;28;20040;-71
2022/01/01 07:49:01;;;;;;;6.78;3.60;;;19.10;56.90;;;;;;5014088;28;20100;-71
2022/01/01 07:51:27;;;;;;;5.05;3.40;;;19.10;56.90;;;;;;5014252;28;20026;-71
2022/01/01 07:53:52;;;;;;;4.35;3.15;;;19.10;56.90;;;;;;5014148;28;20068;-71
2022/01/01 07:56:18;;;;;;;6.30;3.50;;;19.10;56.90;;;;;;5014095;28;20022;-71
2022/01/01 07:58:43;;;;;;;4.68;3.40;;;19.10;56.90;;;;;;5014173;28;20386;-71
2022/01/01 08:01:09;;;;;;;5.63;3.22;;;19.00;56.80;;;;;;5013924;28;20022;-71
2022/01/01 08:03:34;;;;;;;4.93;3.30;;;19.10;56.90;;;;;;5013941;28;20389;-71
2022/01/01 08:06:01;;;;;;;4.13;3.13;;;19.10;56.90;;;;;;5013008;28;20026;-71
2022/01/01 08:08:26;;;;;;;6.40;3.53;;;19.10;56.90;;;;;;5013698;28;20049;-71
2022/01/01 08:10:52;;;;;;;4.78;3.50;;;19.10;56.90;;;;;;5012493;28;20025;-71
2022/01/01 08:13:24;;;;;;;6.40;3.08;;;19.10;56.90;;;;;;5013876;28;20018;-71
2022/01/01 08:15:52;;;;;;;4.85;3.15;;;19.10;56.90;;;;;;5013738;28;20025;-72
2022/01/01 08:18:18;;;;;;;5.00;3.50;;;19.10;56.90;;;;;;5004673;28;20425;-71
2022/01/01 08:20:44;;;;;;;4.80;3.30;;;19.10;56.90;;;;;;4994043;28;20026;-71
2022/01/01 08:23:10;;;;;;;6.68;3.97;;;19.10;56.80;;;;;;4994098;28;20034;-71
2022/01/01 08:25:36;;;;;;;6.05;3.35;;;19.10;56.90;;;;;;4993864;28;20141;-71
2022/01/01 08:28:02;;;;;;;4.30;2.90;;;19.10;56.80;;;;;;4993966;28;20027;-71
2022/01/01 08:30:28;;;;;;;4.32;3.30;;;19.10;56.80;;;;;;5013051;28;20467;-71
2022/01/01 08:33:01;;;;;;;6.20;3.30;;;19.10;56.80;;;;;;5013596;28;20029;-71
2022/01/01 08:35:27;;;;;;;5.18;3.20;;;19.10;56.80;;;;;;5012125;28;20072;-71
2022/01/01 08:37:52;;;;;;;5.43;2.95;;;19.10;56.80;;;;;;5013345;28;20025;-71
2022/01/01 08:40:18;;;;;;;4.30;3.00;;;19.10;56.80;;;;;;5013283;28;20060;-71
2022/01/01 08:42:43;;;;;;;4.93;3.38;;;19.10;56.80;;;;;;5013322;28;20022;-71
2022/01/01 08:45:09;;;;;;;4.80;3.28;;;19.00;56.80;;;;;;5013182;28;20030;-71
2022/01/01 08:47:34;;;;;;;4.65;3.10;;;19.00;56.80;;;;;;5012931;28;20032;-71
2022/01/01 08:50:00;;;;;;;4.60;3.20;;;19.00;56.80;;;;;;5013114;28;20030;-71
2022/01/01 08:52:25;;;;;;;4.78;3.08;;;19.00;56.80;;;;;;5013239;28;20029;-71
2022/01/01 08:54:55;;;;;;;5.40;3.30;;;19.10;56.90;;;;;;5011875;28;20022;-71
2022/01/01 08:57:22;;;;;;;5.43;3.30;;;19.00;56.80;;;;;;5013114;28;20025;-71
2022/01/01 08:59:47;;;;;;;5.50;3.10;;;19.00;56.80;;;;;;5013046;28;20022;-71
2022/01/01 09:02:13;;;;;;;5.00;2.83;;;19.10;56.80;;;;;;5012879;28;20795;-71
2022/01/01 09:04:38;;;;;;;4.93;3.13;;;19.10;56.90;;;;;;5012905;28;20022;-71
2022/01/01 09:07:04;;;;;;;4.28;3.00;;;19.00;56.80;;;;;;5012715;28;20046;-71
2022/01/01 09:09:29;;;;;;;4.80;3.00;;;19.00;57.70;;;;;;5011640;28;20026;-71
2022/01/01 09:11:55;;;;;;;4.70;2.90;;;19.10;56.90;;;;;;5012829;28;20032;-71
2022/01/01 09:14:20;;;;;;;4.43;2.80;;;19.10;57.10;;;;;;5012816;28;20024;-71
2022/01/01 09:16:46;;;;;;;4.15;2.75;;;19.00;56.80;;;;;;5012781;28;20505;-71
2022/01/01 09:19:12;;;;;;;5.07;3.22;;;19.00;56.80;;;;;;4996389;28;20097;-71
2022/01/01 09:21:38;;;;;;;4.15;2.92;;;19.10;56.90;;;;;;4993130;28;20022;-71
2022/01/01 09:24:04;;;;;;;4.20;2.95;;;19.00;56.80;;;;;;4993125;28;20041;-71
2022/01/01 09:26:30;;;;;;;4.47;2.85;;;19.00;56.90;;;;;;4993077;28;20023;-71
2022/01/01 09:28:55;;;;;;;5.10;3.30;;;19.10;56.90;;;;;;4998582;28;20479;-71
2022/01/01 09:31:21;;;;;;;4.15;2.78;;;19.00;56.90;;;;;;5012557;28;20030;-71
2022/01/01 09:33:46;;;;;;;3.17;2.47;;;19.00;56.80;;;;;;5012684;28;20023;-71
2022/01/01 09:36:14;;;;;;;4.57;3.00;;;19.00;56.90;;;;;;5012467;28;20022;-71
2022/01/01 09:38:40;;;;;;;4.07;2.92;;;19.00;56.90;;;;;;5012627;28;20025;-71
2022/01/01 09:41:06;;;;;;;5.43;2.88;;;19.00;56.90;;;;;;5011321;28;20030;-71
2022/01/01 09:43:32;;;;;;;3.90;2.80;;;19.10;56.90;;;;;;5012650;28;20053;-71
2022/01/01 09:45:59;;;;;;;5.97;2.80;;;19.00;56.90;;;;;;5012478;28;20030;-71
2022/01/01 09:48:26;;;;;;;4.65;2.90;;;19.10;56.90;;;;;;5012424;28;20501;-71
2022/01/01 09:50:55;;;;;;;4.18;2.90;;;19.10;56.90;;;;;;5012476;28;20018;-71
2022/01/01 09:53:23;;;;;;;3.90;2.67;;;19.10;56.90;;;;;;5012568;28;20018;-71
2022/01/01 09:55:49;;;;;;;4.95;2.63;;;19.10;56.90;;;;;;5012422;28;20025;-71
2022/01/01 09:58:15;;;;;;;4.07;2.83;;;19.10;56.90;;;;;;5012468;28;20513;-71
2022/01/01 10:00:40;;;;;;;4.32;2.70;;;19.10;56.90;;;;;;5015198;28;20034;-71
2022/01/01 10:03:13;;;;;;;4.40;2.92;;;19.10;56.90;;;;;;5016171;28;20022;-71
2022/01/01 10:06:05;;;;;;;4.25;2.65;;;19.10;56.90;;;;;;5016324;28;20084;-71
2022/01/01 10:08:31;;;;;;;3.63;2.45;;;19.10;56.80;;;;;;5016027;28;20414;-71
2022/01/01 10:10:57;;;;;;;3.67;2.50;;;19.00;56.90;;;;;;5016131;28;20506;-71
2022/01/01 10:13:31;;;;;;;4.93;2.78;;;19.00;57.00;;;;;;5016099;28;20022;-71
2022/01/01 10:15:59;;;;;;;3.72;2.67;;;19.10;56.90;;;;;;5015946;28;20025;-71
2022/01/01 10:18:27;;;;;;;4.75;2.90;;;19.10;57.00;;;;;;5005823;28;20022;-71
2022/01/01 10:21:04;;;;;;;4.78;2.72;;;19.10;57.00;;;;;;4995055;28;20395;-71
2022/01/01 10:23:31;;;;;;;3.85;2.45;;;19.10;57.00;;;;;;4996357;28;20022;-71
2022/01/01 10:29:14;;;;;;;3.88;2.55;;;19.10;56.90;;;;;;4993209;28;20072;-71
2022/01/01 10:32:12;;;;;;;3.53;2.55;;;19.00;56.90;;;;;;5015684;28;20478;-71
2022/01/01 10:34:46;;;;;;;2.90;2.40;;;19.10;56.90;;;;;;5013853;28;20041;-71
2022/01/01 10:37:14;;;;;;;3.72;2.78;;;19.00;56.90;;;;;;5015438;28;20487;-71
2022/01/01 10:39:54;;;;;;;4.68;2.40;;;19.10;57.10;;;;;;5015503;28;20025;-71
2022/01/01 10:42:20;;;;;;;3.67;2.53;;;19.10;57.00;;;;;;5015613;28;20029;-71
2022/01/01 10:44:51;;;;;;;3.80;2.67;;;19.10;57.10;;;;;;5015485;28;20026;-71
2022/01/01 10:47:31;;;;;;;4.85;2.60;;;19.10;57.00;;;;;;5015270;28;20088;-71
2022/01/01 10:50:14;;;;;;;4.35;2.70;;;19.10;57.00;;;;;;5015492;28;20026;-71
2022/01/01 10:52:45;;;;;;;5.25;2.55;;;19.00;57.00;;;;;;5015377;28;20045;-71
2022/01/01 10:55:12;;;;;;;3.65;2.40;;;19.00;57.10;;;;;;5015337;28;20026;-71
2022/01/01 10:57:41;;;;;;;4.82;2.60;;;19.10;57.10;;;;;;5015245;28;20044;-71
2022/01/01 11:00:07;;;;;;;3.28;2.10;;;19.10;58.10;;;;;;5013973;28;20018;-71
2022/01/01 11:02:34;;;;;;;3.53;2.58;;;19.10;57.10;;;;;;5014991;28;20033;-71
2022/01/01 11:05:00;;;;;;;3.17;2.38;;;19.00;57.10;;;;;;5015141;28;20017;-71
2022/01/01 11:07:30;;;;;;;4.05;2.55;;;19.10;57.10;;;;;;5014910;28;20556;-71
2022/01/01 11:09:57;;;;;;;3.47;2.30;;;19.10;57.20;;;;;;5015080;28;20030;-71
2022/01/01 11:12:24;;;;;;;3.83;2.45;;;19.10;57.10;;;;;;5015476;28;20430;-71
2022/01/01 11:14:52;;;;;;;3.13;2.28;;;19.10;57.20;;;;;;5014971;28;20024;-71
2022/01/01 11:17:19;;;;;;;3.75;2.55;;;19.10;57.20;;;;;;5013755;28;20029;-71
2022/01/01 11:19:45;;;;;;;3.33;2.25;;;19.10;57.10;;;;;;4995275;28;20042;-71
2022/01/01 11:22:11;;;;;;;3.15;2.55;;;19.10;57.10;;;;;;4995118;28;20487;-71
2022/01/01 11:24:40;;;;;;;4.32;2.55;;;19.10;57.10;;;;;;4995121;28;20570;-71
2022/01/01 11:27:06;;;;;;;3.78;2.47;;;19.10;57.00;;;;;;4995064;28;20471;-71
2022/01/01 11:29:34;;;;;;;3.67;2.60;;;19.10;57.00;;;;;;5006757;28;20474;-71
2022/01/01 11:32:01;;;;;;;3.78;2.47;;;19.10;57.00;;;;;;5014573;28;20018;-71
2022/01/01 11:34:30;;;;;;;4.00;2.50;;;19.10;57.00;;;;;;5013214;28;20044;-71
2022/01/01 11:36:56;;;;;;;3.95;2.30;;;19.10;56.90;;;;;;5013204;28;20042;-71
2022/01/01 11:39:25;;;;;;;3.25;2.08;;;19.20;57.00;;;;;;5014297;28;20063;-71
2022/01/01 11:41:51;;;;;;;3.28;2.22;;;19.20;57.00;;;;;;5014573;28;20033;-71
2022/01/01 11:44:31;;;;;;;3.53;2.92;;;19.20;57.10;;;;;;5012884;28;20026;-71
2022/01/01 11:47:01;;;;;;;3.90;2.40;;;19.20;56.90;;;;;;5014358;28;20148;-71
2022/01/01 11:49:28;;;;;;;3.35;2.25;;;19.20;57.00;;;;;;5014193;28;20393;-71
2022/01/01 11:51:56;;;;;;;3.97;2.65;;;19.20;57.10;;;;;;5012932;28;20386;-71
2022/01/01 11:54:25;;;;;;;3.28;2.30;;;19.20;57.00;;;;;;5014073;28;20026;-71
2022/01/01 11:56:50;;;;;;;2.67;2.03;;;19.20;57.00;;;;;;5014284;28;20045;-71
2022/01/01 11:59:21;;;;;;;3.90;2.60;;;19.20;57.00;;;;;;5014034;28;20478;-71
2022/01/01 12:01:48;;;;;;;3.47;2.05;;;19.20;57.00;;;;;;5012733;28;20083;-71
2022/01/01 12:04:33;;;;;;;3.53;2.53;;;19.10;57.00;;;;;;5013885;28;20029;-71
2022/01/01 12:07:19;;;;;;;2.92;2.20;;;19.20;56.90;;;;;;5012562;28;20042;-71
2022/01/01 12:13:11;;;;;;;3.28;2.50;;;19.20;56.90;;;;;;5014064;28;20188;-71
2022/01/01 12:15:42;;;;;;;2.60;2.20;;;19.20;56.90;;;;;;5012654;28;20038;-71
2022/01/01 12:18:13;;;;;;;4.80;2.33;;;19.20;57.10;;;;;;5005906;28;20018;-71
2022/01/01 12:20:50;;;;;;;2.75;2.13;;;19.20;57.10;;;;;;4994185;28;20022;-71
2022/01/01 12:23:21;;;;;;;3.70;2.30;;;19.20;57.00;;;;;;4993378;28;20517;-71
2022/01/01 12:25:49;;;;;;;2.80;1.90;;;19.20;57.00;;;;;;4994059;28;20101;-71
2022/01/01 12:28:21;;;;;;;3.70;2.20;;;19.20;57.00;;;;;;4995203;28;20076;-71
2022/01/01 12:30:49;;;;;;;;;;;19.20;57.00;;;;;;5013953;28;20021;-71
2022/01/01 12:33:26;;;;;;;2.70;2.03;;;19.20;57.00;;;;;;5013541;28;19909;-71
2022/01/01 12:35:56;;;;;;;3.83;2.50;;;19.10;57.20;;;;;;5012247;28;20478;-71
2022/01/01 12:38:28;;;;;;;2.97;2.00;;;19.10;57.10;;;;;;4995187;28;20046;-71
2022/01/01 12:40:59;;;;;;;3.08;2.17;;;19.20;57.20;;;;;;5013312;28;20029;-71
2022/01/01 12:43:26;;;;;;;2.65;2.10;;;19.20;57.00;;;;;;5013350;28;20056;-71
2022/01/01 12:45:53;;;;;;;3.80;2.30;;;19.20;57.00;;;;;;5013347;28;20037;-71
2022/01/01 12:48:23;;;;;;;3.53;2.15;;;19.20;57.00;;;;;;5011857;28;20073;-71
2022/01/01 12:51:13;;;;;;;6.68;2.28;;;19.20;57.00;;;;;;5013134;28;20543;-71
2022/01/01 12:53:40;;;;;;;3.40;2.40;;;19.20;56.80;;;;;;5013192;28;20024;-71
2022/01/01 12:56:10;;;;;;;3.80;2.10;;;19.20;56.90;;;;;;5013154;28;20488;-71